sensor_id;sensor_type;location;lat;lon;timestamp;pressure;altitude;pressure_sealevel;temperature;humidity
2681;BME280;1350;42.134;24.708;2023-10-09T00:01:42;99664.28;;;22.71;55.09
2681;BME280;1350;42.134;24.708;2023-10-09T00:04:11;99665.50;;;22.59;55.60
2681;BME280;1350;42.134;24.708;2023-10-09T00:06:39;99666.75;;;22.64;55.51
2681;BME280;1350;42.134;24.708;2023-10-09T00:09:07;99656.16;;;22.53;55.96
2681;BME280;1350;42.134;24.708;2023-10-09T00:11:56;99660.16;;;22.49;56.06
2681;BME280;1350;42.134;24.708;2023-10-09T00:14:25;99657.19;;;22.52;56.21
2681;BME280;1350;42.134;24.708;2023-10-09T00:16:52;99650.47;;;22.47;56.60
2681;BME280;1350;42.134;24.708;2023-10-09T00:19:30;99655.44;;;22.34;57.08
2681;BME280;1350;42.134;24.708;2023-10-09T00:21:59;99653.84;;;22.31;57.22
2681;BME280;1350;42.134;24.708;2023-10-09T00:24:32;99651.63;;;22.27;57.59
2681;BME280;1350;42.134;24.708;2023-10-09T00:26:59;99652.78;;;22.24;57.73
2681;BME280;1350;42.134;24.708;2023-10-09T00:29:39;99659.03;;;22.25;57.72
2681;BME280;1350;42.134;24.708;2023-10-09T00:32:10;99662.34;;;22.19;57.86
2681;BME280;1350;42.134;24.708;2023-10-09T00:34:41;99661.53;;;22.09;58.49
2681;BME280;1350;42.134;24.708;2023-10-09T00:37:08;99664.25;;;22.09;58.36
2681;BME280;1350;42.134;24.708;2023-10-09T00:39:41;99662.41;;;22.09;58.44
2681;BME280;1350;42.134;24.708;2023-10-09T00:42:09;99665.84;;;22.02;58.43
2681;BME280;1350;42.134;24.708;2023-10-09T00:44:39;99660.75;;;21.99;58.27
2681;BME280;1350;42.134;24.708;2023-10-09T00:47:08;99660.81;;;21.89;58.67
2681;BME280;1350;42.134;24.708;2023-10-09T00:49:54;99674.41;;;21.97;58.75
2681;BME280;1350;42.134;24.708;2023-10-09T00:52:26;99660.09;;;21.87;58.66
2681;BME280;1350;42.134;24.708;2023-10-09T00:55:00;99680.66;;;21.98;57.96
2681;BME280;1350;42.134;24.708;2023-10-09T00:57:34;99681.25;;;21.92;57.71
2681;BME280;1350;42.134;24.708;2023-10-09T01:00:07;99682.09;;;21.92;57.40
2681;BME280;1350;42.134;24.708;2023-10-09T01:02:49;99682.94;;;21.93;56.91
2681;BME280;1350;42.134;24.708;2023-10-09T01:05:35;99674.63;;;21.77;56.95
2681;BME280;1350;42.134;24.708;2023-10-09T01:08:04;99667.97;;;21.71;56.99
2681;BME280;1350;42.134;24.708;2023-10-09T01:10:45;99671.22;;;21.65;57.18
2681;BME280;1350;42.134;24.708;2023-10-09T01:13:17;99679.88;;;21.68;56.89
2681;BME280;1350;42.134;24.708;2023-10-09T01:15:46;99688.44;;;21.64;57.06
2681;BME280;1350;42.134;24.708;2023-10-09T01:18:14;99687.31;;;21.57;57.20
2681;BME280;1350;42.134;24.708;2023-10-09T01:20:41;99691.28;;;21.53;57.45
2681;BME280;1350;42.134;24.708;2023-10-09T01:23:12;99699.84;;;21.48;57.37
2681;BME280;1350;42.134;24.708;2023-10-09T01:25:39;99704.41;;;21.48;57.22
2681;BME280;1350;42.134;24.708;2023-10-09T01:28:10;99712.06;;;21.52;57.43
2681;BME280;1350;42.134;24.708;2023-10-09T01:30:44;99720.44;;;21.49;57.52
2681;BME280;1350;42.134;24.708;2023-10-09T01:33:13;99711.22;;;21.42;57.62
2681;BME280;1350;42.134;24.708;2023-10-09T01:35:48;99723.81;;;21.51;57.60
2681;BME280;1350;42.134;24.708;2023-10-09T01:38:17;99721.84;;;21.53;57.70
2681;BME280;1350;42.134;24.708;2023-10-09T01:40:57;99728.34;;;21.60;57.61
2681;BME280;1350;42.134;24.708;2023-10-09T01:43:32;99732.78;;;21.61;57.87
2681;BME280;1350;42.134;24.708;2023-10-09T01:46:00;99735.75;;;21.58;57.77
2681;BME280;1350;42.134;24.708;2023-10-09T01:48:30;99738.47;;;21.58;58.04
2681;BME280;1350;42.134;24.708;2023-10-09T01:51:01;99739.59;;;21.46;58.53
2681;BME280;1350;42.134;24.708;2023-10-09T01:53:32;99751.25;;;21.47;58.97
2681;BME280;1350;42.134;24.708;2023-10-09T01:56:09;99757.06;;;21.52;59.45
2681;BME280;1350;42.134;24.708;2023-10-09T01:58:41;99753.50;;;21.51;59.53
2681;BME280;1350;42.134;24.708;2023-10-09T02:01:10;99751.97;;;21.49;60.29
2681;BME280;1350;42.134;24.708;2023-10-09T02:03:38;99755.69;;;21.48;60.44
2681;BME280;1350;42.134;24.708;2023-10-09T02:06:07;99759.50;;;21.45;61.12
2681;BME280;1350;42.134;24.708;2023-10-09T02:08:53;99761.22;;;21.37;61.69
2681;BME280;1350;42.134;24.708;2023-10-09T02:11:20;99768.16;;;21.20;63.05
2681;BME280;1350;42.134;24.708;2023-10-09T02:14:03;99778.28;;;21.18;63.67
2681;BME280;1350;42.134;24.708;2023-10-09T02:16:42;99783.78;;;20.98;63.59
2681;BME280;1350;42.134;24.708;2023-10-09T02:19:09;99790.41;;;20.84;64.09
2681;BME280;1350;42.134;24.708;2023-10-09T02:21:54;99796.53;;;20.86;64.58
2681;BME280;1350;42.134;24.708;2023-10-09T02:24:25;99809.19;;;20.95;63.64
2681;BME280;1350;42.134;24.708;2023-10-09T02:27:15;99813.63;;;20.76;63.92
2681;BME280;1350;42.134;24.708;2023-10-09T02:30:07;99833.13;;;20.89;62.92
2681;BME280;1350;42.134;24.708;2023-10-09T02:32:45;99862.47;;;20.43;63.24
2681;BME280;1350;42.134;24.708;2023-10-09T02:35:18;99902.56;;;18.89;72.14
2681;BME280;1350;42.134;24.708;2023-10-09T02:37:47;99889.38;;;18.53;75.85
2681;BME280;1350;42.134;24.708;2023-10-09T02:40:15;99899.75;;;18.35;76.88
2681;BME280;1350;42.134;24.708;2023-10-09T02:42:56;99925.13;;;17.86;78.13
2681;BME280;1350;42.134;24.708;2023-10-09T02:45:24;99911.75;;;17.51;78.33
2681;BME280;1350;42.134;24.708;2023-10-09T02:47:57;99938.16;;;17.32;78.51
2681;BME280;1350;42.134;24.708;2023-10-09T02:50:25;99938.53;;;16.79;80.59
2681;BME280;1350;42.134;24.708;2023-10-09T02:52:54;99939.19;;;16.70;81.25
2681;BME280;1350;42.134;24.708;2023-10-09T02:55:35;99952.28;;;16.37;82.04
2681;BME280;1350;42.134;24.708;2023-10-09T02:58:04;99941.44;;;16.26;82.66
2681;BME280;1350;42.134;24.708;2023-10-09T03:00:33;99949.25;;;16.16;82.82
2681;BME280;1350;42.134;24.708;2023-10-09T03:03:03;99949.47;;;16.13;83.05
2681;BME280;1350;42.134;24.708;2023-10-09T03:05:32;99978.56;;;15.93;83.33
2681;BME280;1350;42.134;24.708;2023-10-09T03:08:00;99954.97;;;15.85;83.62
2681;BME280;1350;42.134;24.708;2023-10-09T03:10:28;99967.63;;;15.83;83.92
2681;BME280;1350;42.134;24.708;2023-10-09T03:12:56;99977.88;;;15.77;84.15
2681;BME280;1350;42.134;24.708;2023-10-09T03:15:25;99979.47;;;15.79;83.66
2681;BME280;1350;42.134;24.708;2023-10-09T03:17:54;100002.75;;;15.65;84.14
2681;BME280;1350;42.134;24.708;2023-10-09T03:20:21;99986.09;;;15.74;83.99
2681;BME280;1350;42.134;24.708;2023-10-09T03:22:48;99994.53;;;15.68;84.02
2681;BME280;1350;42.134;24.708;2023-10-09T03:25:15;99995.19;;;15.71;83.46
2681;BME280;1350;42.134;24.708;2023-10-09T03:27:43;100002.59;;;15.54;83.93
2681;BME280;1350;42.134;24.708;2023-10-09T03:30:14;100009.94;;;15.50;84.44
2681;BME280;1350;42.134;24.708;2023-10-09T03:32:47;100000.69;;;15.56;84.17
2681;BME280;1350;42.134;24.708;2023-10-09T03:35:17;100014.84;;;15.44;84.97
2681;BME280;1350;42.134;24.708;2023-10-09T03:37:53;100005.66;;;15.48;84.67
2681;BME280;1350;42.134;24.708;2023-10-09T03:40:25;100016.75;;;15.42;84.58
2681;BME280;1350;42.134;24.708;2023-10-09T03:42:53;100010.56;;;15.41;84.46
2681;BME280;1350;42.134;24.708;2023-10-09T03:45:22;100016.00;;;15.40;84.92
2681;BME280;1350;42.134;24.708;2023-10-09T03:47:54;100029.06;;;15.16;85.62
2681;BME280;1350;42.134;24.708;2023-10-09T03:50:34;100019.84;;;15.21;85.38
2681;BME280;1350;42.134;24.708;2023-10-09T03:53:04;100023.81;;;15.14;85.58
2681;BME280;1350;42.134;24.708;2023-10-09T03:55:34;100033.38;;;15.18;85.22
2681;BME280;1350;42.134;24.708;2023-10-09T03:58:03;100033.88;;;15.11;84.40
2681;BME280;1350;42.134;24.708;2023-10-09T04:00:33;100038.94;;;15.15;84.11
2681;BME280;1350;42.134;24.708;2023-10-09T04:03:10;100031.00;;;15.14;83.80
2681;BME280;1350;42.134;24.708;2023-10-09T04:05:39;100046.06;;;15.15;83.31
2681;BME280;1350;42.134;24.708;2023-10-09T04:08:08;100055.06;;;15.00;82.64
2681;BME280;1350;42.134;24.708;2023-10-09T04:10:38;100058.22;;;14.92;82.73
2681;BME280;1350;42.134;24.708;2023-10-09T04:13:18;100046.84;;;14.89;82.52
2681;BME280;1350;42.134;24.708;2023-10-09T04:15:50;100049.63;;;14.87;82.25
2681;BME280;1350;42.134;24.708;2023-10-09T04:18:20;100046.94;;;14.73;82.86
2681;BME280;1350;42.134;24.708;2023-10-09T04:20:54;100068.00;;;14.78;82.52
2681;BME280;1350;42.134;24.708;2023-10-09T04:23:38;100074.00;;;14.67;82.79
2681;BME280;1350;42.134;24.708;2023-10-09T04:26:19;100068.59;;;14.69;83.27
2681;BME280;1350;42.134;24.708;2023-10-09T04:28:46;100074.03;;;14.81;82.43
2681;BME280;1350;42.134;24.708;2023-10-09T04:31:18;100075.94;;;14.79;82.58
2681;BME280;1350;42.134;24.708;2023-10-09T04:33:47;100080.63;;;14.76;82.80
2681;BME280;1350;42.134;24.708;2023-10-09T04:36:23;100077.06;;;14.75;82.39
2681;BME280;1350;42.134;24.708;2023-10-09T04:38:54;100080.97;;;14.70;81.96
2681;BME280;1350;42.134;24.708;2023-10-09T04:41:41;100083.34;;;14.60;80.78
2681;BME280;1350;42.134;24.708;2023-10-09T04:44:24;100076.75;;;14.52;80.47
2681;BME280;1350;42.134;24.708;2023-10-09T04:47:02;100086.78;;;14.48;79.44
2681;BME280;1350;42.134;24.708;2023-10-09T04:49:45;100085.53;;;14.54;78.91
2681;BME280;1350;42.134;24.708;2023-10-09T04:52:27;100089.13;;;14.39;78.48
2681;BME280;1350;42.134;24.708;2023-10-09T04:55:08;100106.69;;;14.27;77.47
2681;BME280;1350;42.134;24.708;2023-10-09T04:57:45;100096.13;;;14.26;77.57
2681;BME280;1350;42.134;24.708;2023-10-09T05:00:26;100094.16;;;14.29;77.07
2681;BME280;1350;42.134;24.708;2023-10-09T05:03:13;100111.59;;;14.19;76.42
2681;BME280;1350;42.134;24.708;2023-10-09T05:05:55;100109.59;;;14.23;76.03
2681;BME280;1350;42.134;24.708;2023-10-09T05:08:26;100110.66;;;14.20;75.22
2681;BME280;1350;42.134;24.708;2023-10-09T05:10:57;100117.88;;;14.18;75.24
2681;BME280;1350;42.134;24.708;2023-10-09T05:13:41;100139.66;;;14.26;75.02
2681;BME280;1350;42.134;24.708;2023-10-09T05:16:13;100125.28;;;14.29;74.74
2681;BME280;1350;42.134;24.708;2023-10-09T05:18:46;100127.69;;;14.33;73.59
2681;BME280;1350;42.134;24.708;2023-10-09T05:21:21;100124.28;;;14.31;73.60
2681;BME280;1350;42.134;24.708;2023-10-09T05:24:11;100134.66;;;14.20;73.30
2681;BME280;1350;42.134;24.708;2023-10-09T05:26:49;100140.75;;;14.22;73.13
2681;BME280;1350;42.134;24.708;2023-10-09T05:29:19;100144.91;;;14.28;72.40
2681;BME280;1350;42.134;24.708;2023-10-09T05:32:00;100145.44;;;14.34;70.49
2681;BME280;1350;42.134;24.708;2023-10-09T05:34:31;100154.88;;;14.40;69.95
2681;BME280;1350;42.134;24.708;2023-10-09T05:37:00;100163.50;;;14.29;68.23
2681;BME280;1350;42.134;24.708;2023-10-09T05:39:43;100157.38;;;14.12;66.96
2681;BME280;1350;42.134;24.708;2023-10-09T05:42:24;100163.56;;;14.12;65.64
2681;BME280;1350;42.134;24.708;2023-10-09T05:44:54;100158.78;;;14.03;64.95
2681;BME280;1350;42.134;24.708;2023-10-09T05:47:37;100185.19;;;14.08;63.79
2681;BME280;1350;42.134;24.708;2023-10-09T05:50:16;100181.09;;;14.16;63.55
2681;BME280;1350;42.134;24.708;2023-10-09T05:53:01;100181.72;;;14.21;63.96
2681;BME280;1350;42.134;24.708;2023-10-09T05:55:42;100199.50;;;14.21;63.65
2681;BME280;1350;42.134;24.708;2023-10-09T05:58:14;100207.13;;;14.28;63.65
2681;BME280;1350;42.134;24.708;2023-10-09T06:00:58;100209.44;;;14.50;63.45
2681;BME280;1350;42.134;24.708;2023-10-09T06:03:45;100210.34;;;14.49;63.10
2681;BME280;1350;42.134;24.708;2023-10-09T06:06:21;100210.66;;;14.74;62.00
2681;BME280;1350;42.134;24.708;2023-10-09T06:09:01;100201.88;;;14.72;61.93
2681;BME280;1350;42.134;24.708;2023-10-09T06:11:46;100233.66;;;14.61;61.46
2681;BME280;1350;42.134;24.708;2023-10-09T06:14:21;100238.53;;;14.54;61.88
2681;BME280;1350;42.134;24.708;2023-10-09T06:16:51;100239.97;;;14.60;61.96
2681;BME280;1350;42.134;24.708;2023-10-09T06:19:26;100229.19;;;14.61;61.83
2681;BME280;1350;42.134;24.708;2023-10-09T06:21:56;100246.22;;;14.74;62.05
2681;BME280;1350;42.134;24.708;2023-10-09T06:24:56;100258.38;;;14.64;61.14
2681;BME280;1350;42.134;24.708;2023-10-09T06:27:23;100272.06;;;14.58;61.56
2681;BME280;1350;42.134;24.708;2023-10-09T06:30:13;100286.94;;;14.62;61.48
2681;BME280;1350;42.134;24.708;2023-10-09T06:32:40;100280.78;;;14.62;60.97
2681;BME280;1350;42.134;24.708;2023-10-09T06:35:16;100285.66;;;14.69;60.36
2681;BME280;1350;42.134;24.708;2023-10-09T06:37:46;100290.47;;;14.78;60.29
2681;BME280;1350;42.134;24.708;2023-10-09T06:40:32;100301.00;;;14.66;59.61
2681;BME280;1350;42.134;24.708;2023-10-09T06:43:30;100313.91;;;14.73;59.65
2681;BME280;1350;42.134;24.708;2023-10-09T06:45:58;100311.66;;;14.81;59.58
2681;BME280;1350;42.134;24.708;2023-10-09T06:48:46;100318.03;;;14.79;59.21
2681;BME280;1350;42.134;24.708;2023-10-09T06:51:21;100314.59;;;14.77;59.45
2681;BME280;1350;42.134;24.708;2023-10-09T06:54:07;100319.63;;;14.97;59.40
2681;BME280;1350;42.134;24.708;2023-10-09T06:56:43;100322.66;;;14.91;59.33
2681;BME280;1350;42.134;24.708;2023-10-09T06:59:27;100331.13;;;15.13;58.77
2681;BME280;1350;42.134;24.708;2023-10-09T07:02:07;100342.25;;;15.05;58.95
2681;BME280;1350;42.134;24.708;2023-10-09T07:04:51;100333.84;;;14.97;59.00
2681;BME280;1350;42.134;24.708;2023-10-09T07:07:21;100346.44;;;14.80;59.40
2681;BME280;1350;42.134;24.708;2023-10-09T07:09:52;100347.59;;;14.76;59.24
2681;BME280;1350;42.134;24.708;2023-10-09T07:12:36;100347.91;;;14.85;58.94
2681;BME280;1350;42.134;24.708;2023-10-09T07:15:08;100352.31;;;14.86;59.19
2681;BME280;1350;42.134;24.708;2023-10-09T07:17:53;100351.06;;;14.92;59.14
2681;BME280;1350;42.134;24.708;2023-10-09T07:20:21;100346.91;;;15.17;59.09
2681;BME280;1350;42.134;24.708;2023-10-09T07:23:03;100342.38;;;15.34;58.12
2681;BME280;1350;42.134;24.708;2023-10-09T07:25:44;100350.78;;;15.57;58.07
2681;BME280;1350;42.134;24.708;2023-10-09T07:28:24;100338.94;;;15.75;57.63
2681;BME280;1350;42.134;24.708;2023-10-09T07:31:08;100343.75;;;15.98;56.21
2681;BME280;1350;42.134;24.708;2023-10-09T07:33:52;100345.53;;;16.26;55.67
2681;BME280;1350;42.134;24.708;2023-10-09T07:36:23;100350.03;;;16.53;55.19
2681;BME280;1350;42.134;24.708;2023-10-09T07:39:00;100347.88;;;16.99;54.00
2681;BME280;1350;42.134;24.708;2023-10-09T07:41:32;100351.34;;;17.40;52.81
2681;BME280;1350;42.134;24.708;2023-10-09T07:44:05;100353.66;;;18.21;51.74
2681;BME280;1350;42.134;24.708;2023-10-09T07:47:02;100340.84;;;18.50;50.09
2681;BME280;1350;42.134;24.708;2023-10-09T07:49:48;100348.84;;;19.22;49.37
2681;BME280;1350;42.134;24.708;2023-10-09T07:52:17;100344.50;;;18.62;49.32
2681;BME280;1350;42.134;24.708;2023-10-09T07:54:48;100345.50;;;19.08;48.53
2681;BME280;1350;42.134;24.708;2023-10-09T07:57:20;100341.72;;;19.34;47.93
2681;BME280;1350;42.134;24.708;2023-10-09T07:59:52;100335.84;;;19.74;47.39
2681;BME280;1350;42.134;24.708;2023-10-09T08:02:29;100342.66;;;20.35;46.61
2681;BME280;1350;42.134;24.708;2023-10-09T08:05:00;100344.03;;;19.27;47.85
2681;BME280;1350;42.134;24.708;2023-10-09T08:07:32;100337.16;;;20.37;46.25
2681;BME280;1350;42.134;24.708;2023-10-09T08:10:03;100337.06;;;20.92;46.01
2681;BME280;1350;42.134;24.708;2023-10-09T08:12:49;100328.75;;;20.73;46.20
2681;BME280;1350;42.134;24.708;2023-10-09T08:15:25;100332.00;;;20.45;46.22
2681;BME280;1350;42.134;24.708;2023-10-09T08:18:00;100336.41;;;21.42;44.12
2681;BME280;1350;42.134;24.708;2023-10-09T08:20:36;100325.53;;;22.15;43.71
2681;BME280;1350;42.134;24.708;2023-10-09T08:23:36;100335.81;;;22.21;44.00
2681;BME280;1350;42.134;24.708;2023-10-09T08:26:16;100336.06;;;22.18;44.18
2681;BME280;1350;42.134;24.708;2023-10-09T08:28:55;100333.13;;;22.60;44.94
2681;BME280;1350;42.134;24.708;2023-10-09T08:31:42;100327.34;;;21.43;46.14
2681;BME280;1350;42.134;24.708;2023-10-09T08:34:22;100331.03;;;22.34;43.69
2681;BME280;1350;42.134;24.708;2023-10-09T08:36:52;100323.63;;;22.66;44.50
2681;BME280;1350;42.134;24.708;2023-10-09T08:39:19;100322.03;;;23.51;42.40
2681;BME280;1350;42.134;24.708;2023-10-09T08:41:52;100321.16;;;23.21;42.30
2681;BME280;1350;42.134;24.708;2023-10-09T08:44:25;100315.22;;;24.12;41.49
2681;BME280;1350;42.134;24.708;2023-10-09T08:46:55;100322.84;;;24.72;41.01
2681;BME280;1350;42.134;24.708;2023-10-09T08:49:23;100321.09;;;24.98;39.01
2681;BME280;1350;42.134;24.708;2023-10-09T08:51:50;100312.09;;;25.68;37.99
2681;BME280;1350;42.134;24.708;2023-10-09T08:54:18;100307.88;;;26.16;38.29
2681;BME280;1350;42.134;24.708;2023-10-09T08:56:45;100302.19;;;26.69;37.41
2681;BME280;1350;42.134;24.708;2023-10-09T08:59:16;100306.84;;;26.17;37.73
2681;BME280;1350;42.134;24.708;2023-10-09T09:01:46;100302.75;;;26.47;36.85
2681;BME280;1350;42.134;24.708;2023-10-09T09:04:36;100297.81;;;26.42;37.10
2681;BME280;1350;42.134;24.708;2023-10-09T09:07:04;100300.69;;;26.75;36.45
2681;BME280;1350;42.134;24.708;2023-10-09T09:09:32;100294.88;;;27.35;36.10
2681;BME280;1350;42.134;24.708;2023-10-09T09:12:00;100289.91;;;27.79;37.04
2681;BME280;1350;42.134;24.708;2023-10-09T09:14:36;100290.56;;;25.74;36.96
2681;BME280;1350;42.134;24.708;2023-10-09T09:17:05;100284.34;;;24.86;38.09
2681;BME280;1350;42.134;24.708;2023-10-09T09:19:36;100282.47;;;25.22;38.72
2681;BME280;1350;42.134;24.708;2023-10-09T09:22:04;100286.28;;;26.15;36.94
2681;BME280;1350;42.134;24.708;2023-10-09T09:24:38;100282.09;;;23.62;40.45
2681;BME280;1350;42.134;24.708;2023-10-09T09:27:11;100280.84;;;23.57;40.51
2681;BME280;1350;42.134;24.708;2023-10-09T09:29:44;100277.44;;;24.10;40.07
2681;BME280;1350;42.134;24.708;2023-10-09T09:32:27;100264.28;;;24.42;39.49
2681;BME280;1350;42.134;24.708;2023-10-09T09:35:01;100262.53;;;25.13;38.68
2681;BME280;1350;42.134;24.708;2023-10-09T09:37:31;100264.88;;;25.94;38.45
2681;BME280;1350;42.134;24.708;2023-10-09T09:40:15;100263.63;;;26.06;36.74
2681;BME280;1350;42.134;24.708;2023-10-09T09:42:57;100261.47;;;26.18;37.61
2681;BME280;1350;42.134;24.708;2023-10-09T09:45:31;100258.88;;;27.08;36.04
2681;BME280;1350;42.134;24.708;2023-10-09T09:48:02;100258.28;;;26.22;36.79
2681;BME280;1350;42.134;24.708;2023-10-09T09:50:31;100260.06;;;26.06;36.86
2681;BME280;1350;42.134;24.708;2023-10-09T09:52:58;100246.97;;;27.01;36.26
2681;BME280;1350;42.134;24.708;2023-10-09T09:55:31;100251.41;;;27.90;34.90
2681;BME280;1350;42.134;24.708;2023-10-09T09:58:02;100241.91;;;26.56;35.99
2681;BME280;1350;42.134;24.708;2023-10-09T10:00:33;100238.19;;;24.59;38.85
2681;BME280;1350;42.134;24.708;2023-10-09T10:03:19;100232.81;;;24.94;38.72
2681;BME280;1350;42.134;24.708;2023-10-09T10:05:48;100227.41;;;24.05;39.72
2681;BME280;1350;42.134;24.708;2023-10-09T10:08:18;100216.94;;;25.17;38.06
2681;BME280;1350;42.134;24.708;2023-10-09T10:10:46;100208.56;;;26.04;37.49
2681;BME280;1350;42.134;24.708;2023-10-09T10:13:56;100205.75;;;26.80;36.15
2681;BME280;1350;42.134;24.708;2023-10-09T10:16:30;100198.97;;;27.16;35.90
2681;BME280;1350;42.134;24.708;2023-10-09T10:19:03;100195.81;;;27.99;35.46
2681;BME280;1350;42.134;24.708;2023-10-09T10:21:47;100182.84;;;28.01;34.42
2681;BME280;1350;42.134;24.708;2023-10-09T10:24:42;100172.94;;;26.23;36.41
2681;BME280;1350;42.134;24.708;2023-10-09T10:27:19;100158.81;;;26.86;35.83
2681;BME280;1350;42.134;24.708;2023-10-09T10:30:28;100161.69;;;27.08;35.56
2681;BME280;1350;42.134;24.708;2023-10-09T10:33:02;100153.69;;;27.23;35.60
2681;BME280;1350;42.134;24.708;2023-10-09T10:35:45;100146.03;;;27.42;35.22
2681;BME280;1350;42.134;24.708;2023-10-09T10:38:29;100165.63;;;24.70;37.87
2681;BME280;1350;42.134;24.708;2023-10-09T10:41:09;100149.34;;;24.70;38.84
2681;BME280;1350;42.134;24.708;2023-10-09T10:43:37;100162.41;;;24.57;38.67
2681;BME280;1350;42.134;24.708;2023-10-09T10:46:21;100145.94;;;24.06;39.66
2681;BME280;1350;42.134;24.708;2023-10-09T10:48:56;100138.34;;;24.72;38.51
2681;BME280;1350;42.134;24.708;2023-10-09T10:51:42;100137.00;;;24.41;38.50
2681;BME280;1350;42.134;24.708;2023-10-09T10:54:21;100137.03;;;25.70;37.27
2681;BME280;1350;42.134;24.708;2023-10-09T10:57:13;100136.72;;;26.15;36.45
2681;BME280;1350;42.134;24.708;2023-10-09T10:59:45;100123.41;;;26.78;35.89
2681;BME280;1350;42.134;24.708;2023-10-09T11:02:16;100123.94;;;26.73;35.69
2681;BME280;1350;42.134;24.708;2023-10-09T11:04:48;100114.25;;;26.05;36.36
2681;BME280;1350;42.134;24.708;2023-10-09T11:07:22;100100.56;;;26.46;35.86
2681;BME280;1350;42.134;24.708;2023-10-09T11:09:54;100098.41;;;26.74;35.59
2681;BME280;1350;42.134;24.708;2023-10-09T11:12:45;100091.44;;;25.56;36.68
2681;BME280;1350;42.134;24.708;2023-10-09T11:15:33;100085.44;;;25.78;36.84
2681;BME280;1350;42.134;24.708;2023-10-09T11:18:10;100084.09;;;26.56;36.28
2681;BME280;1350;42.134;24.708;2023-10-09T11:20:45;100074.56;;;25.86;36.75
2681;BME280;1350;42.134;24.708;2023-10-09T11:23:23;100072.63;;;26.04;36.83
2681;BME280;1350;42.134;24.708;2023-10-09T11:25:55;100069.78;;;26.38;37.01
2681;BME280;1350;42.134;24.708;2023-10-09T11:28:44;100061.09;;;27.23;38.25
2681;BME280;1350;42.134;24.708;2023-10-09T11:31:14;100062.50;;;26.95;35.45
2681;BME280;1350;42.134;24.708;2023-10-09T11:33:45;100052.44;;;27.03;36.35
2681;BME280;1350;42.134;24.708;2023-10-09T11:36:12;100039.72;;;26.88;36.00
2681;BME280;1350;42.134;24.708;2023-10-09T11:38:40;100041.59;;;26.55;35.43
2681;BME280;1350;42.134;24.708;2023-10-09T11:41:14;100035.91;;;27.05;34.98
2681;BME280;1350;42.134;24.708;2023-10-09T11:43:48;100025.00;;;27.29;34.98
2681;BME280;1350;42.134;24.708;2023-10-09T11:46:19;100017.59;;;27.45;34.30
2681;BME280;1350;42.134;24.708;2023-10-09T11:49:13;100007.94;;;27.43;34.34
2681;BME280;1350;42.134;24.708;2023-10-09T11:51:52;100008.59;;;25.60;36.92
2681;BME280;1350;42.134;24.708;2023-10-09T11:54:57;100013.81;;;24.86;37.03
2681;BME280;1350;42.134;24.708;2023-10-09T11:57:25;100016.75;;;24.67;37.41
2681;BME280;1350;42.134;24.708;2023-10-09T11:59:57;100011.38;;;25.35;36.79
2681;BME280;1350;42.134;24.708;2023-10-09T12:02:25;100005.72;;;25.28;36.80
2681;BME280;1350;42.134;24.708;2023-10-09T12:04:52;99999.63;;;25.60;36.81
2681;BME280;1350;42.134;24.708;2023-10-09T12:07:22;99992.25;;;26.02;36.29
2681;BME280;1350;42.134;24.708;2023-10-09T12:09:50;99989.16;;;25.89;36.55
2681;BME280;1350;42.134;24.708;2023-10-09T12:12:23;99986.16;;;26.32;36.25
2681;BME280;1350;42.134;24.708;2023-10-09T12:14:52;99993.50;;;25.66;35.98
2681;BME280;1350;42.134;24.708;2023-10-09T12:17:19;99984.97;;;26.10;35.50
2681;BME280;1350;42.134;24.708;2023-10-09T12:19:50;99963.38;;;26.17;35.82
2681;BME280;1350;42.134;24.708;2023-10-09T12:22:17;99960.16;;;26.21;35.47
2681;BME280;1350;42.134;24.708;2023-10-09T12:24:47;99969.94;;;25.82;35.67
2681;BME280;1350;42.134;24.708;2023-10-09T12:27:14;99964.00;;;25.87;35.93
2681;BME280;1350;42.134;24.708;2023-10-09T12:29:46;99958.03;;;25.75;36.11
2681;BME280;1350;42.134;24.708;2023-10-09T12:32:15;99952.59;;;25.83;36.12
2681;BME280;1350;42.134;24.708;2023-10-09T12:34:45;99945.97;;;25.70;35.77
2681;BME280;1350;42.134;24.708;2023-10-09T12:37:15;99953.41;;;25.52;36.47
2681;BME280;1350;42.134;24.708;2023-10-09T12:39:46;99951.06;;;24.64;38.14
2681;BME280;1350;42.134;24.708;2023-10-09T12:42:13;99948.13;;;24.75;37.56
2681;BME280;1350;42.134;24.708;2023-10-09T12:44:42;99940.59;;;24.43;37.90
2681;BME280;1350;42.134;24.708;2023-10-09T12:47:11;99931.63;;;24.00;38.26
2681;BME280;1350;42.134;24.708;2023-10-09T12:49:38;99934.19;;;23.39;38.63
2681;BME280;1350;42.134;24.708;2023-10-09T12:52:06;99929.78;;;23.38;39.13
2681;BME280;1350;42.134;24.708;2023-10-09T12:54:41;99925.22;;;23.11;39.35
2681;BME280;1350;42.134;24.708;2023-10-09T12:57:09;99922.28;;;23.32;39.12
2681;BME280;1350;42.134;24.708;2023-10-09T12:59:39;99911.63;;;22.67;40.23
2681;BME280;1350;42.134;24.708;2023-10-09T13:02:12;99909.56;;;22.88;40.03
2681;BME280;1350;42.134;24.708;2023-10-09T13:04:53;99914.50;;;23.19;39.52
2681;BME280;1350;42.134;24.708;2023-10-09T13:07:20;99904.84;;;23.17;39.52
2681;BME280;1350;42.134;24.708;2023-10-09T13:09:47;99902.81;;;23.19;39.24
2681;BME280;1350;42.134;24.708;2023-10-09T13:12:33;99892.53;;;23.32;39.17
2681;BME280;1350;42.134;24.708;2023-10-09T13:15:04;99885.56;;;23.47;39.22
2681;BME280;1350;42.134;24.708;2023-10-09T13:17:36;99883.53;;;23.32;39.37
2681;BME280;1350;42.134;24.708;2023-10-09T13:20:03;99880.34;;;22.64;39.81
2681;BME280;1350;42.134;24.708;2023-10-09T13:22:38;99873.03;;;22.28;40.34
2681;BME280;1350;42.134;24.708;2023-10-09T13:25:05;99867.91;;;22.35;40.55
2681;BME280;1350;42.134;24.708;2023-10-09T13:27:33;99863.75;;;22.40;40.06
2681;BME280;1350;42.134;24.708;2023-10-09T13:30:00;99865.56;;;22.49;40.65
2681;BME280;1350;42.134;24.708;2023-10-09T13:32:31;99863.41;;;22.62;40.03
2681;BME280;1350;42.134;24.708;2023-10-09T13:35:02;99865.28;;;22.89;39.98
2681;BME280;1350;42.134;24.708;2023-10-09T13:37:29;99859.22;;;23.22;39.18
2681;BME280;1350;42.134;24.708;2023-10-09T13:40:02;99858.38;;;22.94;39.56
2681;BME280;1350;42.134;24.708;2023-10-09T13:42:35;99852.63;;;23.07;39.70
2681;BME280;1350;42.134;24.708;2023-10-09T13:45:03;99860.63;;;22.81;40.01